createdAt,value
2022-09-24T00:02:39.106Z,13.1
2022-09-24T00:17:39.005Z,13.1
2022-09-24T00:32:39.012Z,13
2022-09-24T00:47:39.000Z,12.8
2022-09-24T01:02:39.005Z,12.6
2022-09-24T01:17:39.013Z,12.6
2022-09-24T01:32:39.006Z,12.7
2022-09-24T01:47:39.002Z,12.6
2022-09-24T02:02:39.002Z,12.4
2022-09-24T02:17:39.012Z,12.4
2022-09-24T02:32:38.998Z,12.4
2022-09-24T02:47:39.006Z,12.3
2022-09-24T03:02:39.131Z,12.3
2022-09-24T03:17:39.013Z,12.2
2022-09-24T03:32:39.008Z,12.2
2022-09-24T03:47:39.013Z,12.1
2022-09-24T04:02:39.042Z,12.2
2022-09-24T04:17:39.000Z,12.2
2022-09-24T04:32:38.999Z,12.1
2022-09-24T04:47:39.024Z,11.9
2022-09-24T05:02:39.083Z,11.8
2022-09-24T05:17:39.005Z,11.9
2022-09-24T05:32:39.001Z,11.8
2022-09-24T05:47:39.002Z,11.8
2022-09-24T06:02:39.065Z,11.8
2022-09-24T06:17:39.003Z,12.1
2022-09-24T06:32:39.037Z,12.6
2022-09-24T06:47:39.031Z,12.6
2022-09-24T07:02:39.170Z,12.6
2022-09-24T07:17:39.044Z,12.6
2022-09-24T07:32:39.035Z,12.7
2022-09-24T07:47:39.055Z,12.7
2022-09-24T08:02:39.035Z,12.8
2022-09-24T08:17:39.033Z,12.9
2022-09-24T08:32:39.035Z,13.3
2022-09-24T08:47:39.023Z,13.5
2022-09-24T09:02:39.216Z,13.8
2022-09-24T09:17:39.029Z,14.2
2022-09-24T09:32:39.034Z,14.4
2022-09-24T09:47:39.025Z,14.7
2022-09-24T10:02:39.097Z,14.8
2022-09-24T10:17:39.029Z,14.9
2022-09-24T10:32:39.030Z,15.5
2022-09-24T10:47:39.032Z,15.6
2022-09-24T11:02:39.072Z,16
2022-09-24T11:17:39.033Z,15.9
2022-09-24T11:32:39.033Z,16.1
2022-09-24T11:47:39.030Z,16.5
2022-09-24T12:02:39.054Z,16.6
2022-09-24T12:17:39.030Z,16.9
2022-09-24T12:32:39.036Z,17.4
2022-09-24T12:47:39.030Z,17.5
2022-09-24T13:02:39.082Z,17.4
2022-09-24T13:17:39.044Z,17.2
2022-09-24T13:32:39.044Z,17.2
2022-09-24T13:47:39.039Z,17.2
2022-09-24T14:02:39.122Z,17.4
2022-09-24T14:17:39.030Z,17.4
2022-09-24T14:32:39.035Z,17
2022-09-24T14:47:39.039Z,17.1
2022-09-24T15:02:39.038Z,16.6
2022-09-24T15:17:39.032Z,16.7
2022-09-24T15:32:39.032Z,16.6
2022-09-24T15:47:39.049Z,16.2
2022-09-24T16:02:39.066Z,16.1
2022-09-24T16:17:39.036Z,15.2
2022-09-24T16:32:39.044Z,14.8
2022-09-24T16:47:39.043Z,14.7
2022-09-24T17:02:39.111Z,14.4
2022-09-24T17:17:48.510Z,13.9
2022-09-24T17:32:39.037Z,13.8
2022-09-24T17:47:39.041Z,13.6
2022-09-24T18:02:39.071Z,13.6
2022-09-24T18:17:39.031Z,13.4
2022-09-24T18:32:39.027Z,13.4
2022-09-24T18:47:39.002Z,13.4
2022-09-24T19:02:39.102Z,13.2
2022-09-24T19:17:39.010Z,13.2
2022-09-24T19:32:39.013Z,13.1
2022-09-24T19:47:39.008Z,13.1
2022-09-24T20:02:39.011Z,12.9
2022-09-24T20:17:39.035Z,12.6
2022-09-24T20:32:39.007Z,12.5
2022-09-24T20:47:39.011Z,12.4
2022-09-24T21:02:41.285Z,12.1
2022-09-24T21:17:39.002Z,12
2022-09-24T21:32:39.007Z,12.1
2022-09-24T21:47:39.011Z,12.1
2022-09-24T22:02:42.634Z,12
2022-09-24T22:17:39.007Z,12.1
2022-09-24T22:32:39.013Z,12
2022-09-24T22:47:39.003Z,12
2022-09-24T23:02:39.053Z,12.1
2022-09-24T23:17:39.014Z,11.9
2022-09-24T23:32:39.012Z,11.8
2022-09-24T23:47:39.003Z,11.8
